sensor_id;sensor_type;location;lat;lon;timestamp;P1;durP1;ratioP1;P2;durP2;ratioP2
23376;SDS011;14353;46.070;13.222;2022-12-08T00:02:24;6.22;;;4.70;;
23376;SDS011;14353;46.070;13.222;2022-12-08T00:04:58;5.82;;;4.32;;
23376;SDS011;14353;46.070;13.222;2022-12-08T00:07:43;4.90;;;4.10;;
23376;SDS011;14353;46.070;13.222;2022-12-08T00:10:41;5.22;;;4.43;;
23376;SDS011;14353;46.070;13.222;2022-12-08T00:16:20;4.90;;;4.07;;
23376;SDS011;14353;46.070;13.222;2022-12-08T00:22:06;4.85;;;4.15;;
23376;SDS011;14353;46.070;13.222;2022-12-08T00:24:39;5.80;;;4.10;;
23376;SDS011;14353;46.070;13.222;2022-12-08T00:27:35;4.32;;;3.92;;
23376;SDS011;14353;46.070;13.222;2022-12-08T00:33:47;4.32;;;3.40;;
23376;SDS011;14353;46.070;13.222;2022-12-08T00:36:24;5.53;;;4.40;;
23376;SDS011;14353;46.070;13.222;2022-12-08T00:39:17;5.15;;;3.85;;
23376;SDS011;14353;46.070;13.222;2022-12-08T00:41:48;5.03;;;4.20;;
23376;SDS011;14353;46.070;13.222;2022-12-08T00:44:45;4.97;;;4.03;;
23376;SDS011;14353;46.070;13.222;2022-12-08T00:47:50;4.35;;;3.72;;
23376;SDS011;14353;46.070;13.222;2022-12-08T00:50:26;5.03;;;3.92;;
23376;SDS011;14353;46.070;13.222;2022-12-08T00:53:26;4.65;;;3.78;;
23376;SDS011;14353;46.070;13.222;2022-12-08T00:56:15;4.75;;;3.70;;
23376;SDS011;14353;46.070;13.222;2022-12-08T00:58:49;3.80;;;3.40;;
23376;SDS011;14353;46.070;13.222;2022-12-08T01:01:39;3.97;;;3.33;;
23376;SDS011;14353;46.070;13.222;2022-12-08T01:04:15;4.70;;;3.70;;
23376;SDS011;14353;46.070;13.222;2022-12-08T01:06:55;3.45;;;3.15;;
23376;SDS011;14353;46.070;13.222;2022-12-08T01:10:06;3.78;;;3.08;;
23376;SDS011;14353;46.070;13.222;2022-12-08T01:12:45;4.75;;;3.58;;
23376;SDS011;14353;46.070;13.222;2022-12-08T01:15:21;3.85;;;3.25;;
23376;SDS011;14353;46.070;13.222;2022-12-08T01:17:48;3.83;;;3.38;;
23376;SDS011;14353;46.070;13.222;2022-12-08T01:21:08;4.13;;;3.20;;
23376;SDS011;14353;46.070;13.222;2022-12-08T01:23:46;4.30;;;3.42;;
23376;SDS011;14353;46.070;13.222;2022-12-08T01:27:03;4.55;;;2.95;;
23376;SDS011;14353;46.070;13.222;2022-12-08T01:29:49;3.47;;;2.90;;
23376;SDS011;14353;46.070;13.222;2022-12-08T01:32:34;3.60;;;3.10;;
23376;SDS011;14353;46.070;13.222;2022-12-08T01:35:07;3.03;;;2.72;;
23376;SDS011;14353;46.070;13.222;2022-12-08T01:38:17;3.90;;;2.83;;
23376;SDS011;14353;46.070;13.222;2022-12-08T01:41:04;3.67;;;2.80;;
23376;SDS011;14353;46.070;13.222;2022-12-08T01:47:01;3.60;;;2.83;;
23376;SDS011;14353;46.070;13.222;2022-12-08T01:49:35;3.20;;;2.80;;
23376;SDS011;14353;46.070;13.222;2022-12-08T01:52:25;3.50;;;2.60;;
23376;SDS011;14353;46.070;13.222;2022-12-08T01:55:08;3.55;;;2.70;;
23376;SDS011;14353;46.070;13.222;2022-12-08T01:58:14;2.70;;;2.50;;
23376;SDS011;14353;46.070;13.222;2022-12-08T02:00:50;2.92;;;2.58;;
23376;SDS011;14353;46.070;13.222;2022-12-08T02:03:47;3.03;;;2.45;;
23376;SDS011;14353;46.070;13.222;2022-12-08T02:06:25;3.55;;;2.55;;
23376;SDS011;14353;46.070;13.222;2022-12-08T02:09:05;2.92;;;2.38;;
23376;SDS011;14353;46.070;13.222;2022-12-08T02:11:50;3.88;;;2.40;;
23376;SDS011;14353;46.070;13.222;2022-12-08T02:14:37;2.83;;;2.30;;
23376;SDS011;14353;46.070;13.222;2022-12-08T02:17:35;2.60;;;2.22;;
23376;SDS011;14353;46.070;13.222;2022-12-08T02:41:49;2.08;;;1.88;;
23376;SDS011;14353;46.070;13.222;2022-12-08T02:44:59;2.42;;;2.05;;
23376;SDS011;14353;46.070;13.222;2022-12-08T02:47:47;2.40;;;2.03;;
23376;SDS011;14353;46.070;13.222;2022-12-08T02:50:32;2.42;;;1.83;;
23376;SDS011;14353;46.070;13.222;2022-12-08T02:53:06;2.58;;;1.95;;
23376;SDS011;14353;46.070;13.222;2022-12-08T03:07:06;2.13;;;1.67;;
23376;SDS011;14353;46.070;13.222;2022-12-08T03:13:37;1.85;;;1.70;;
23376;SDS011;14353;46.070;13.222;2022-12-08T03:16:29;2.45;;;1.90;;
23376;SDS011;14353;46.070;13.222;2022-12-08T03:19:29;1.90;;;1.65;;
23376;SDS011;14353;46.070;13.222;2022-12-08T03:22:00;2.35;;;1.73;;
23376;SDS011;14353;46.070;13.222;2022-12-08T03:24:55;1.75;;;1.50;;
23376;SDS011;14353;46.070;13.222;2022-12-08T03:28:04;1.80;;;1.70;;
23376;SDS011;14353;46.070;13.222;2022-12-08T03:31:06;1.90;;;1.70;;
23376;SDS011;14353;46.070;13.222;2022-12-08T03:36:58;2.58;;;1.50;;
23376;SDS011;14353;46.070;13.222;2022-12-08T03:39:33;2.70;;;1.60;;
23376;SDS011;14353;46.070;13.222;2022-12-08T03:42:22;3.42;;;1.75;;
23376;SDS011;14353;46.070;13.222;2022-12-08T03:44:58;1.75;;;1.65;;
23376;SDS011;14353;46.070;13.222;2022-12-08T03:47:27;1.50;;;1.40;;
23376;SDS011;14353;46.070;13.222;2022-12-08T03:50:03;2.30;;;1.60;;
23376;SDS011;14353;46.070;13.222;2022-12-08T03:52:38;2.00;;;1.60;;
23376;SDS011;14353;46.070;13.222;2022-12-08T03:55:07;2.00;;;1.63;;
23376;SDS011;14353;46.070;13.222;2022-12-08T03:57:42;1.85;;;1.40;;
23376;SDS011;14353;46.070;13.222;2022-12-08T04:02:57;1.33;;;1.23;;
23376;SDS011;14353;46.070;13.222;2022-12-08T04:05:28;1.80;;;1.40;;
23376;SDS011;14353;46.070;13.222;2022-12-08T04:08:06;1.50;;;1.40;;
23376;SDS011;14353;46.070;13.222;2022-12-08T04:10:37;2.25;;;1.40;;
23376;SDS011;14353;46.070;13.222;2022-12-08T04:13:09;1.75;;;1.30;;
23376;SDS011;14353;46.070;13.222;2022-12-08T04:18:34;1.85;;;1.65;;
23376;SDS011;14353;46.070;13.222;2022-12-08T04:21:03;1.80;;;1.45;;
23376;SDS011;14353;46.070;13.222;2022-12-08T04:23:29;1.50;;;1.30;;
23376;SDS011;14353;46.070;13.222;2022-12-08T04:26:07;1.83;;;1.60;;
23376;SDS011;14353;46.070;13.222;2022-12-08T04:28:41;1.50;;;1.25;;
23376;SDS011;14353;46.070;13.222;2022-12-08T04:31:10;1.35;;;1.25;;
23376;SDS011;14353;46.070;13.222;2022-12-08T04:33:56;1.92;;;1.60;;
23376;SDS011;14353;46.070;13.222;2022-12-08T04:36:22;1.95;;;1.42;;
23376;SDS011;14353;46.070;13.222;2022-12-08T04:38:48;1.80;;;1.40;;
23376;SDS011;14353;46.070;13.222;2022-12-08T04:41:17;1.60;;;1.27;;
23376;SDS011;14353;46.070;13.222;2022-12-08T04:44:03;1.50;;;1.35;;
23376;SDS011;14353;46.070;13.222;2022-12-08T04:46:34;1.20;;;1.10;;
23376;SDS011;14353;46.070;13.222;2022-12-08T04:49:04;1.52;;;1.30;;
23376;SDS011;14353;46.070;13.222;2022-12-08T04:52:11;1.30;;;1.20;;
23376;SDS011;14353;46.070;13.222;2022-12-08T04:54:40;1.92;;;1.30;;
23376;SDS011;14353;46.070;13.222;2022-12-08T04:57:09;1.65;;;1.20;;
23376;SDS011;14353;46.070;13.222;2022-12-08T04:59:38;1.20;;;1.10;;
23376;SDS011;14353;46.070;13.222;2022-12-08T05:02:13;1.20;;;1.10;;
23376;SDS011;14353;46.070;13.222;2022-12-08T05:04:48;1.10;;;0.95;;
23376;SDS011;14353;46.070;13.222;2022-12-08T05:07:28;1.40;;;1.30;;
23376;SDS011;14353;46.070;13.222;2022-12-08T05:12:45;1.38;;;1.20;;
23376;SDS011;14353;46.070;13.222;2022-12-08T05:15:17;1.67;;;1.10;;
23376;SDS011;14353;46.070;13.222;2022-12-08T05:17:43;1.38;;;1.02;;
23376;SDS011;14353;46.070;13.222;2022-12-08T05:20:11;1.58;;;1.15;;
23376;SDS011;14353;46.070;13.222;2022-12-08T05:22:37;1.30;;;1.20;;
23376;SDS011;14353;46.070;13.222;2022-12-08T05:25:13;1.10;;;1.00;;
23376;SDS011;14353;46.070;13.222;2022-12-08T05:27:54;1.50;;;1.30;;
23376;SDS011;14353;46.070;13.222;2022-12-08T05:30:31;1.63;;;1.25;;
23376;SDS011;14353;46.070;13.222;2022-12-08T05:33:00;1.40;;;1.15;;
23376;SDS011;14353;46.070;13.222;2022-12-08T05:35:33;1.20;;;1.08;;
23376;SDS011;14353;46.070;13.222;2022-12-08T05:38:01;1.88;;;1.00;;
23376;SDS011;14353;46.070;13.222;2022-12-08T05:40:30;1.30;;;1.00;;
23376;SDS011;14353;46.070;13.222;2022-12-08T05:42:56;1.20;;;1.10;;
23376;SDS011;14353;46.070;13.222;2022-12-08T05:45:25;1.20;;;1.10;;
23376;SDS011;14353;46.070;13.222;2022-12-08T05:47:56;1.70;;;1.30;;
23376;SDS011;14353;46.070;13.222;2022-12-08T05:50:22;2.38;;;1.10;;
23376;SDS011;14353;46.070;13.222;2022-12-08T05:52:57;1.52;;;1.02;;
23376;SDS011;14353;46.070;13.222;2022-12-08T05:55:50;1.25;;;1.10;;
23376;SDS011;14353;46.070;13.222;2022-12-08T05:58:18;1.10;;;1.00;;
23376;SDS011;14353;46.070;13.222;2022-12-08T06:00:48;1.13;;;0.95;;
23376;SDS011;14353;46.070;13.222;2022-12-08T06:03:41;1.08;;;0.98;;
23376;SDS011;14353;46.070;13.222;2022-12-08T06:06:16;1.33;;;1.10;;
23376;SDS011;14353;46.070;13.222;2022-12-08T06:08:42;1.83;;;1.10;;
23376;SDS011;14353;46.070;13.222;2022-12-08T06:11:15;1.20;;;1.10;;
23376;SDS011;14353;46.070;13.222;2022-12-08T06:13:44;1.85;;;1.23;;
23376;SDS011;14353;46.070;13.222;2022-12-08T06:16:18;1.10;;;0.90;;
23376;SDS011;14353;46.070;13.222;2022-12-08T06:18:52;1.10;;;1.00;;
23376;SDS011;14353;46.070;13.222;2022-12-08T06:21:21;1.20;;;1.10;;
23376;SDS011;14353;46.070;13.222;2022-12-08T06:23:51;1.20;;;1.10;;
23376;SDS011;14353;46.070;13.222;2022-12-08T06:26:18;1.67;;;1.15;;
23376;SDS011;14353;46.070;13.222;2022-12-08T06:29:08;0.90;;;0.90;;
23376;SDS011;14353;46.070;13.222;2022-12-08T06:31:37;1.10;;;1.00;;
23376;SDS011;14353;46.070;13.222;2022-12-08T06:34:08;1.02;;;0.90;;
23376;SDS011;14353;46.070;13.222;2022-12-08T06:36:59;1.25;;;1.10;;
23376;SDS011;14353;46.070;13.222;2022-12-08T06:39:31;1.23;;;1.00;;
23376;SDS011;14353;46.070;13.222;2022-12-08T06:42:02;1.40;;;1.10;;
23376;SDS011;14353;46.070;13.222;2022-12-08T06:44:46;2.33;;;1.30;;
23376;SDS011;14353;46.070;13.222;2022-12-08T06:47:23;1.92;;;1.20;;
23376;SDS011;14353;46.070;13.222;2022-12-08T06:49:54;1.83;;;1.40;;
23376;SDS011;14353;46.070;13.222;2022-12-08T06:52:22;1.67;;;1.38;;
23376;SDS011;14353;46.070;13.222;2022-12-08T06:54:49;2.42;;;1.75;;
23376;SDS011;14353;46.070;13.222;2022-12-08T06:57:17;4.00;;;1.73;;
23376;SDS011;14353;46.070;13.222;2022-12-08T06:59:54;2.10;;;1.67;;
23376;SDS011;14353;46.070;13.222;2022-12-08T07:02:23;2.30;;;1.65;;
23376;SDS011;14353;46.070;13.222;2022-12-08T07:04:54;2.10;;;1.50;;
23376;SDS011;14353;46.070;13.222;2022-12-08T07:07:31;2.10;;;1.50;;
23376;SDS011;14353;46.070;13.222;2022-12-08T07:09:57;2.03;;;1.60;;
23376;SDS011;14353;46.070;13.222;2022-12-08T07:12:31;2.00;;;1.42;;
23376;SDS011;14353;46.070;13.222;2022-12-08T07:15:10;2.30;;;1.45;;
23376;SDS011;14353;46.070;13.222;2022-12-08T07:17:37;2.65;;;1.70;;
23376;SDS011;14353;46.070;13.222;2022-12-08T07:20:15;1.95;;;1.50;;
23376;SDS011;14353;46.070;13.222;2022-12-08T07:22:46;1.55;;;1.30;;
23376;SDS011;14353;46.070;13.222;2022-12-08T07:25:15;2.65;;;1.73;;
23376;SDS011;14353;46.070;13.222;2022-12-08T07:27:45;2.50;;;1.40;;
23376;SDS011;14353;46.070;13.222;2022-12-08T07:30:14;1.88;;;1.33;;
23376;SDS011;14353;46.070;13.222;2022-12-08T07:32:43;1.98;;;1.58;;
23376;SDS011;14353;46.070;13.222;2022-12-08T07:35:17;2.17;;;1.48;;
23376;SDS011;14353;46.070;13.222;2022-12-08T07:37:45;1.88;;;1.50;;
23376;SDS011;14353;46.070;13.222;2022-12-08T07:40:17;1.80;;;1.50;;
23376;SDS011;14353;46.070;13.222;2022-12-08T07:45:45;2.22;;;1.60;;
23376;SDS011;14353;46.070;13.222;2022-12-08T07:48:14;1.55;;;1.30;;
23376;SDS011;14353;46.070;13.222;2022-12-08T07:50:40;2.22;;;1.65;;
23376;SDS011;14353;46.070;13.222;2022-12-08T07:53:13;2.10;;;1.30;;
23376;SDS011;14353;46.070;13.222;2022-12-08T07:55:48;2.20;;;1.58;;
23376;SDS011;14353;46.070;13.222;2022-12-08T07:58:35;2.92;;;1.40;;
23376;SDS011;14353;46.070;13.222;2022-12-08T08:01:24;1.95;;;1.60;;
23376;SDS011;14353;46.070;13.222;2022-12-08T08:03:53;1.55;;;1.45;;
23376;SDS011;14353;46.070;13.222;2022-12-08T08:06:25;1.83;;;1.50;;
23376;SDS011;14353;46.070;13.222;2022-12-08T08:08:51;1.55;;;1.30;;
23376;SDS011;14353;46.070;13.222;2022-12-08T08:11:20;1.63;;;1.50;;
23376;SDS011;14353;46.070;13.222;2022-12-08T08:13:46;2.00;;;1.60;;
23376;SDS011;14353;46.070;13.222;2022-12-08T08:18:59;1.77;;;1.55;;
23376;SDS011;14353;46.070;13.222;2022-12-08T08:21:28;2.15;;;1.60;;
23376;SDS011;14353;46.070;13.222;2022-12-08T08:24:06;1.98;;;1.48;;
23376;SDS011;14353;46.070;13.222;2022-12-08T08:26:42;1.98;;;1.55;;
23376;SDS011;14353;46.070;13.222;2022-12-08T08:29:29;1.95;;;1.35;;
23376;SDS011;14353;46.070;13.222;2022-12-08T08:32:03;2.58;;;1.60;;
23376;SDS011;14353;46.070;13.222;2022-12-08T08:34:35;1.45;;;1.35;;
23376;SDS011;14353;46.070;13.222;2022-12-08T08:37:06;1.63;;;1.50;;
23376;SDS011;14353;46.070;13.222;2022-12-08T08:39:51;2.22;;;1.65;;
23376;SDS011;14353;46.070;13.222;2022-12-08T08:42:22;2.13;;;1.60;;
23376;SDS011;14353;46.070;13.222;2022-12-08T08:45:09;1.92;;;1.73;;
23376;SDS011;14353;46.070;13.222;2022-12-08T08:47:46;2.40;;;1.48;;
23376;SDS011;14353;46.070;13.222;2022-12-08T08:50:38;2.13;;;1.70;;
23376;SDS011;14353;46.070;13.222;2022-12-08T08:53:09;2.75;;;1.70;;
23376;SDS011;14353;46.070;13.222;2022-12-08T08:55:53;2.15;;;1.80;;
23376;SDS011;14353;46.070;13.222;2022-12-08T08:58:34;2.22;;;1.70;;
23376;SDS011;14353;46.070;13.222;2022-12-08T09:01:03;2.03;;;1.70;;
23376;SDS011;14353;46.070;13.222;2022-12-08T09:03:46;1.92;;;1.73;;
23376;SDS011;14353;46.070;13.222;2022-12-08T09:06:13;1.90;;;1.70;;
23376;SDS011;14353;46.070;13.222;2022-12-08T09:08:48;2.75;;;1.75;;
23376;SDS011;14353;46.070;13.222;2022-12-08T09:11:18;2.30;;;1.52;;
23376;SDS011;14353;46.070;13.222;2022-12-08T09:13:48;2.45;;;1.60;;
23376;SDS011;14353;46.070;13.222;2022-12-08T09:16:25;1.60;;;1.50;;
23376;SDS011;14353;46.070;13.222;2022-12-08T09:18:55;2.35;;;1.50;;
23376;SDS011;14353;46.070;13.222;2022-12-08T09:21:41;2.08;;;1.70;;
23376;SDS011;14353;46.070;13.222;2022-12-08T09:24:07;2.42;;;1.70;;
23376;SDS011;14353;46.070;13.222;2022-12-08T09:26:49;2.03;;;1.65;;
23376;SDS011;14353;46.070;13.222;2022-12-08T09:29:17;1.50;;;1.40;;
23376;SDS011;14353;46.070;13.222;2022-12-08T09:31:49;1.80;;;1.50;;
23376;SDS011;14353;46.070;13.222;2022-12-08T09:34:23;1.75;;;1.55;;
23376;SDS011;14353;46.070;13.222;2022-12-08T09:36:52;1.63;;;1.33;;
23376;SDS011;14353;46.070;13.222;2022-12-08T09:39:30;3.33;;;1.90;;
23376;SDS011;14353;46.070;13.222;2022-12-08T09:42:04;1.80;;;1.48;;
23376;SDS011;14353;46.070;13.222;2022-12-08T09:44:48;1.83;;;1.63;;
23376;SDS011;14353;46.070;13.222;2022-12-08T09:52:40;1.63;;;1.52;;
23376;SDS011;14353;46.070;13.222;2022-12-08T09:55:41;2.35;;;1.85;;
23376;SDS011;14353;46.070;13.222;2022-12-08T10:01:46;1.58;;;1.48;;
23376;SDS011;14353;46.070;13.222;2022-12-08T10:04:22;2.15;;;1.80;;
23376;SDS011;14353;46.070;13.222;2022-12-08T10:07:02;2.13;;;1.88;;
23376;SDS011;14353;46.070;13.222;2022-12-08T10:17:54;1.98;;;1.77;;
23376;SDS011;14353;46.070;13.222;2022-12-08T10:20:25;2.88;;;1.60;;
23376;SDS011;14353;46.070;13.222;2022-12-08T10:25:48;2.30;;;1.70;;
23376;SDS011;14353;46.070;13.222;2022-12-08T10:28:22;3.50;;;1.60;;
23376;SDS011;14353;46.070;13.222;2022-12-08T10:30:50;2.22;;;1.70;;
23376;SDS011;14353;46.070;13.222;2022-12-08T10:33:25;1.70;;;1.50;;
23376;SDS011;14353;46.070;13.222;2022-12-08T10:35:55;2.15;;;1.80;;
23376;SDS011;14353;46.070;13.222;2022-12-08T10:38:36;2.13;;;1.63;;
23376;SDS011;14353;46.070;13.222;2022-12-08T10:41:13;2.25;;;1.92;;
23376;SDS011;14353;46.070;13.222;2022-12-08T10:43:56;2.20;;;1.90;;
23376;SDS011;14353;46.070;13.222;2022-12-08T10:46:27;1.73;;;1.60;;
23376;SDS011;14353;46.070;13.222;2022-12-08T10:49:09;1.90;;;1.60;;
23376;SDS011;14353;46.070;13.222;2022-12-08T10:51:40;2.45;;;2.00;;
23376;SDS011;14353;46.070;13.222;2022-12-08T10:57:00;1.90;;;1.58;;
23376;SDS011;14353;46.070;13.222;2022-12-08T10:59:31;1.85;;;1.75;;
23376;SDS011;14353;46.070;13.222;2022-12-08T11:02:07;2.00;;;1.80;;
23376;SDS011;14353;46.070;13.222;2022-12-08T11:04:58;2.00;;;1.70;;
23376;SDS011;14353;46.070;13.222;2022-12-08T11:07:29;2.10;;;1.80;;
23376;SDS011;14353;46.070;13.222;2022-12-08T11:10:14;1.98;;;1.77;;
23376;SDS011;14353;46.070;13.222;2022-12-08T11:12:58;2.20;;;1.65;;
23376;SDS011;14353;46.070;13.222;2022-12-08T11:15:28;1.70;;;1.60;;
23376;SDS011;14353;46.070;13.222;2022-12-08T11:18:24;2.67;;;1.80;;
23376;SDS011;14353;46.070;13.222;2022-12-08T11:20:59;2.00;;;1.70;;
23376;SDS011;14353;46.070;13.222;2022-12-08T11:23:33;1.67;;;1.58;;
23376;SDS011;14353;46.070;13.222;2022-12-08T11:26:22;1.70;;;1.60;;
23376;SDS011;14353;46.070;13.222;2022-12-08T11:29:13;1.63;;;1.52;;
23376;SDS011;14353;46.070;13.222;2022-12-08T11:31:58;1.70;;;1.60;;
23376;SDS011;14353;46.070;13.222;2022-12-08T11:37:58;2.45;;;1.63;;
23376;SDS011;14353;46.070;13.222;2022-12-08T11:45:52;2.28;;;1.65;;
23376;SDS011;14353;46.070;13.222;2022-12-08T11:48:29;1.80;;;1.60;;
23376;SDS011;14353;46.070;13.222;2022-12-08T12:02:03;2.08;;;1.60;;
23376;SDS011;14353;46.070;13.222;2022-12-08T12:13:22;1.60;;;1.40;;
23376;SDS011;14353;46.070;13.222;2022-12-08T12:18:46;2.08;;;1.70;;
23376;SDS011;14353;46.070;13.222;2022-12-08T12:21:29;1.50;;;1.30;;
23376;SDS011;14353;46.070;13.222;2022-12-08T12:24:23;2.75;;;1.77;;
23376;SDS011;14353;46.070;13.222;2022-12-08T12:30:20;1.70;;;1.60;;
23376;SDS011;14353;46.070;13.222;2022-12-08T12:32:52;2.33;;;1.50;;
23376;SDS011;14353;46.070;13.222;2022-12-08T12:35:45;2.00;;;1.80;;
23376;SDS011;14353;46.070;13.222;2022-12-08T12:38:37;2.15;;;1.42;;
23376;SDS011;14353;46.070;13.222;2022-12-08T12:41:41;1.83;;;1.63;;
23376;SDS011;14353;46.070;13.222;2022-12-08T12:46:41;1.70;;;1.40;;
23376;SDS011;14353;46.070;13.222;2022-12-08T12:53:45;1.58;;;1.48;;
23376;SDS011;14353;46.070;13.222;2022-12-08T12:55:51;1.67;;;1.58;;
23376;SDS011;14353;46.070;13.222;2022-12-08T13:03:47;1.85;;;1.50;;
23376;SDS011;14353;46.070;13.222;2022-12-08T13:06:40;2.03;;;1.50;;
23376;SDS011;14353;46.070;13.222;2022-12-08T13:15:45;1.60;;;1.48;;
23376;SDS011;14353;46.070;13.222;2022-12-08T13:26:27;1.48;;;1.38;;
23376;SDS011;14353;46.070;13.222;2022-12-08T13:31:37;1.40;;;1.27;;
23376;SDS011;14353;46.070;13.222;2022-12-08T13:42:34;2.22;;;1.60;;
23376;SDS011;14353;46.070;13.222;2022-12-08T13:56:48;2.08;;;1.73;;
23376;SDS011;14353;46.070;13.222;2022-12-08T14:01:52;1.65;;;1.48;;
23376;SDS011;14353;46.070;13.222;2022-12-08T14:04:36;2.22;;;1.70;;
23376;SDS011;14353;46.070;13.222;2022-12-08T14:07:15;1.90;;;1.50;;
23376;SDS011;14353;46.070;13.222;2022-12-08T14:09:44;1.80;;;1.60;;
23376;SDS011;14353;46.070;13.222;2022-12-08T14:12:20;2.50;;;1.80;;
23376;SDS011;14353;46.070;13.222;2022-12-08T14:14:58;1.75;;;1.60;;
23376;SDS011;14353;46.070;13.222;2022-12-08T14:17:32;1.95;;;1.63;;
23376;SDS011;14353;46.070;13.222;2022-12-08T14:22:42;2.50;;;1.77;;
23376;SDS011;14353;46.070;13.222;2022-12-08T14:25:18;1.95;;;1.60;;
23376;SDS011;14353;46.070;13.222;2022-12-08T14:28:00;2.75;;;1.90;;
23376;SDS011;14353;46.070;13.222;2022-12-08T14:30:33;2.30;;;1.97;;
23376;SDS011;14353;46.070;13.222;2022-12-08T14:33:42;1.95;;;1.73;;
23376;SDS011;14353;46.070;13.222;2022-12-08T14:36:11;2.67;;;1.95;;
23376;SDS011;14353;46.070;13.222;2022-12-08T14:38:40;1.95;;;1.75;;
23376;SDS011;14353;46.070;13.222;2022-12-08T14:41:09;2.08;;;1.70;;
23376;SDS011;14353;46.070;13.222;2022-12-08T14:43:36;2.38;;;2.00;;
23376;SDS011;14353;46.070;13.222;2022-12-08T14:46:19;2.17;;;1.80;;
23376;SDS011;14353;46.070;13.222;2022-12-08T14:48:48;2.63;;;2.20;;
23376;SDS011;14353;46.070;13.222;2022-12-08T14:54:04;2.58;;;2.20;;
23376;SDS011;14353;46.070;13.222;2022-12-08T14:56:59;2.72;;;2.20;;
23376;SDS011;14353;46.070;13.222;2022-12-08T14:59:33;2.80;;;2.10;;
23376;SDS011;14353;46.070;13.222;2022-12-08T15:02:08;3.75;;;2.40;;
23376;SDS011;14353;46.070;13.222;2022-12-08T15:05:18;2.08;;;1.88;;
23376;SDS011;14353;46.070;13.222;2022-12-08T15:07:50;2.58;;;2.10;;
23376;SDS011;14353;46.070;13.222;2022-12-08T15:10:24;2.60;;;2.17;;
23376;SDS011;14353;46.070;13.222;2022-12-08T15:15:27;2.60;;;2.25;;
23376;SDS011;14353;46.070;13.222;2022-12-08T15:18:14;4.32;;;2.30;;
23376;SDS011;14353;46.070;13.222;2022-12-08T15:21:03;5.13;;;2.45;;
23376;SDS011;14353;46.070;13.222;2022-12-08T15:26:20;2.78;;;2.40;;
23376;SDS011;14353;46.070;13.222;2022-12-08T15:29:08;2.80;;;2.30;;
23376;SDS011;14353;46.070;13.222;2022-12-08T15:31:41;3.22;;;2.50;;
23376;SDS011;14353;46.070;13.222;2022-12-08T15:34:16;3.05;;;2.67;;
23376;SDS011;14353;46.070;13.222;2022-12-08T15:36:46;3.05;;;2.50;;
23376;SDS011;14353;46.070;13.222;2022-12-08T15:42:04;4.20;;;2.70;;
23376;SDS011;14353;46.070;13.222;2022-12-08T15:44:44;3.38;;;2.67;;
23376;SDS011;14353;46.070;13.222;2022-12-08T15:47:19;2.90;;;2.50;;
23376;SDS011;14353;46.070;13.222;2022-12-08T15:49:49;2.78;;;2.40;;
23376;SDS011;14353;46.070;13.222;2022-12-08T15:52:19;3.58;;;2.80;;
23376;SDS011;14353;46.070;13.222;2022-12-08T15:55:07;5.32;;;3.08;;
23376;SDS011;14353;46.070;13.222;2022-12-08T15:57:42;3.30;;;2.88;;
23376;SDS011;14353;46.070;13.222;2022-12-08T16:02:56;3.70;;;2.88;;
23376;SDS011;14353;46.070;13.222;2022-12-08T16:05:22;4.57;;;3.30;;
23376;SDS011;14353;46.070;13.222;2022-12-08T16:07:54;3.60;;;2.95;;
23376;SDS011;14353;46.070;13.222;2022-12-08T16:10:26;4.30;;;3.55;;
23376;SDS011;14353;46.070;13.222;2022-12-08T16:16:09;4.80;;;3.22;;
23376;SDS011;14353;46.070;13.222;2022-12-08T16:18:54;4.35;;;3.50;;
23376;SDS011;14353;46.070;13.222;2022-12-08T16:21:20;4.53;;;3.50;;
23376;SDS011;14353;46.070;13.222;2022-12-08T16:23:47;5.28;;;3.47;;
23376;SDS011;14353;46.070;13.222;2022-12-08T16:26:16;4.60;;;3.92;;
23376;SDS011;14353;46.070;13.222;2022-12-08T16:28:48;5.15;;;3.90;;
23376;SDS011;14353;46.070;13.222;2022-12-08T16:31:19;5.68;;;4.25;;
23376;SDS011;14353;46.070;13.222;2022-12-08T16:33:47;5.80;;;4.10;;
23376;SDS011;14353;46.070;13.222;2022-12-08T16:36:22;6.78;;;5.03;;
23376;SDS011;14353;46.070;13.222;2022-12-08T16:38:59;6.38;;;5.05;;
23376;SDS011;14353;46.070;13.222;2022-12-08T16:41:25;8.57;;;5.05;;
23376;SDS011;14353;46.070;13.222;2022-12-08T16:44:13;8.50;;;5.70;;
23376;SDS011;14353;46.070;13.222;2022-12-08T16:46:44;7.53;;;5.20;;
23376;SDS011;14353;46.070;13.222;2022-12-08T16:49:20;9.18;;;6.03;;
23376;SDS011;14353;46.070;13.222;2022-12-08T16:51:46;6.93;;;5.70;;
23376;SDS011;14353;46.070;13.222;2022-12-08T16:54:14;9.07;;;5.88;;
23376;SDS011;14353;46.070;13.222;2022-12-08T16:56:42;6.78;;;5.43;;
23376;SDS011;14353;46.070;13.222;2022-12-08T16:59:32;9.02;;;6.15;;
23376;SDS011;14353;46.070;13.222;2022-12-08T17:02:01;9.38;;;6.10;;
23376;SDS011;14353;46.070;13.222;2022-12-08T17:04:28;10.55;;;6.50;;
23376;SDS011;14353;46.070;13.222;2022-12-08T17:06:55;10.00;;;6.95;;
23376;SDS011;14353;46.070;13.222;2022-12-08T17:09:24;9.02;;;7.15;;
23376;SDS011;14353;46.070;13.222;2022-12-08T17:14:31;11.70;;;8.02;;
23376;SDS011;14353;46.070;13.222;2022-12-08T17:19:29;12.52;;;8.23;;
23376;SDS011;14353;46.070;13.222;2022-12-08T17:21:55;11.68;;;8.75;;
23376;SDS011;14353;46.070;13.222;2022-12-08T17:24:23;12.43;;;8.75;;
23376;SDS011;14353;46.070;13.222;2022-12-08T17:26:53;11.48;;;8.95;;
23376;SDS011;14353;46.070;13.222;2022-12-08T17:29:27;12.73;;;9.40;;
23376;SDS011;14353;46.070;13.222;2022-12-08T17:32:01;13.23;;;9.65;;
23376;SDS011;14353;46.070;13.222;2022-12-08T17:34:43;14.57;;;10.25;;
23376;SDS011;14353;46.070;13.222;2022-12-08T17:37:18;14.93;;;9.98;;
23376;SDS011;14353;46.070;13.222;2022-12-08T17:39:47;14.77;;;9.90;;
23376;SDS011;14353;46.070;13.222;2022-12-08T17:42:13;14.77;;;10.68;;
23376;SDS011;14353;46.070;13.222;2022-12-08T17:44:41;14.18;;;9.82;;
23376;SDS011;14353;46.070;13.222;2022-12-08T17:47:10;13.20;;;10.13;;
23376;SDS011;14353;46.070;13.222;2022-12-08T17:49:39;14.70;;;11.02;;
23376;SDS011;14353;46.070;13.222;2022-12-08T17:52:19;14.50;;;10.80;;
23376;SDS011;14353;46.070;13.222;2022-12-08T17:54:55;14.93;;;10.80;;
23376;SDS011;14353;46.070;13.222;2022-12-08T17:57:29;14.25;;;10.68;;
23376;SDS011;14353;46.070;13.222;2022-12-08T18:00:06;14.95;;;10.60;;
23376;SDS011;14353;46.070;13.222;2022-12-08T18:02:38;13.77;;;10.93;;
23376;SDS011;14353;46.070;13.222;2022-12-08T18:05:07;15.00;;;10.75;;
23376;SDS011;14353;46.070;13.222;2022-12-08T18:07:36;14.48;;;10.95;;
23376;SDS011;14353;46.070;13.222;2022-12-08T18:10:08;14.32;;;10.90;;
23376;SDS011;14353;46.070;13.222;2022-12-08T18:12:34;16.83;;;11.75;;
23376;SDS011;14353;46.070;13.222;2022-12-08T18:15:07;15.13;;;11.63;;
23376;SDS011;14353;46.070;13.222;2022-12-08T18:17:37;14.43;;;11.57;;
23376;SDS011;14353;46.070;13.222;2022-12-08T18:20:17;17.17;;;12.20;;
23376;SDS011;14353;46.070;13.222;2022-12-08T18:22:43;17.88;;;12.30;;
23376;SDS011;14353;46.070;13.222;2022-12-08T18:25:20;13.98;;;11.55;;
23376;SDS011;14353;46.070;13.222;2022-12-08T18:27:46;17.88;;;12.77;;
23376;SDS011;14353;46.070;13.222;2022-12-08T18:30:15;15.43;;;11.82;;
23376;SDS011;14353;46.070;13.222;2022-12-08T18:33:21;16.60;;;11.85;;
23376;SDS011;14353;46.070;13.222;2022-12-08T18:36:04;16.42;;;12.20;;
23376;SDS011;14353;46.070;13.222;2022-12-08T18:38:32;15.65;;;12.45;;
23376;SDS011;14353;46.070;13.222;2022-12-08T18:41:03;16.17;;;12.32;;
23376;SDS011;14353;46.070;13.222;2022-12-08T18:43:32;18.15;;;12.68;;
23376;SDS011;14353;46.070;13.222;2022-12-08T18:46:08;17.95;;;12.55;;
23376;SDS011;14353;46.070;13.222;2022-12-08T18:48:49;15.13;;;12.73;;